Time;durP1;ratioP1;P1;durP2;ratioP2;P2;SDS_P1;SDS_P2;PMS_P1;PMS_P2;Temp;Humidity;BMP_temperature;BMP_pressure;BME280_temperature;BME280_humidity;BME280_pressure;Samples;Min_cycle;Max_cycle;Signal;HPM_P1;HPM_P2
2021/07/07 00:00:51;;;;;;;11.05;2.10;;;15.10;99.90;;;;;;5011687;28;20049;-81
2021/07/07 00:03:16;;;;;;;7.15;1.85;;;15.20;99.90;;;;;;5030878;28;20038;-83
2021/07/07 00:05:42;;;;;;;11.68;1.85;;;15.10;99.90;;;;;;5031091;28;20108;-81
2021/07/07 00:08:08;;;;;;;16.13;1.58;;;15.00;99.90;;;;;;5015910;28;20033;-82
2021/07/07 00:10:34;;;;;;;8.15;2.05;;;15.00;99.90;;;;;;5031091;28;20673;-81
2021/07/07 00:13:02;;;;;;;16.30;2.25;;;15.00;99.90;;;;;;5015196;28;20553;-82
2021/07/07 00:15:31;;;;;;;7.05;2.22;;;15.00;99.90;;;;;;4996164;28;20024;-82
2021/07/07 00:17:57;;;;;;;12.40;1.90;;;15.00;99.90;;;;;;4996071;28;20029;-81
2021/07/07 00:20:23;;;;;;;7.20;1.70;;;15.00;99.90;;;;;;4996080;28;20034;-80
2021/07/07 00:22:49;;;;;;;12.05;2.22;;;15.00;99.90;;;;;;5006476;28;20038;-81
2021/07/07 00:25:15;;;;;;;10.77;1.88;;;14.80;99.90;;;;;;5015526;28;20382;-82
2021/07/07 00:27:40;;;;;;;11.02;2.22;;;14.90;99.90;;;;;;5015606;28;20053;-81
2021/07/07 00:30:07;;;;;;;13.30;1.95;;;14.90;99.90;;;;;;5015457;28;20064;-81
2021/07/07 00:32:33;;;;;;;9.55;2.00;;;15.00;99.90;;;;;;5024163;28;20076;-82
2021/07/07 00:34:59;;;;;;;10.25;2.40;;;15.10;99.90;;;;;;5010879;28;20030;-83
2021/07/07 00:37:24;;;;;;;10.52;1.90;;;15.10;99.90;;;;;;4995834;28;20019;-81
2021/07/07 00:39:51;;;;;;;17.40;2.63;;;15.00;99.90;;;;;;4994605;28;20040;-84
2021/07/07 00:42:16;;;;;;;21.25;3.03;;;15.00;99.90;;;;;;4996204;28;20026;-82
2021/07/07 00:44:42;;;;;;;9.73;2.20;;;15.20;99.90;;;;;;5030396;28;20048;-81
2021/07/07 00:47:08;;;;;;;14.43;2.20;;;15.20;99.90;;;;;;5030315;28;20026;-81
2021/07/07 00:49:34;;;;;;;13.93;2.95;;;15.20;99.90;;;;;;5015108;28;20049;-81
2021/07/07 00:52:02;;;;;;;23.45;3.58;;;15.20;99.90;;;;;;5014900;28;20028;-81
2021/07/07 00:54:30;;;;;;;7.97;2.13;;;15.20;99.90;;;;;;4998744;28;20025;-82
2021/07/07 00:56:57;;;;;;;9.93;2.45;;;15.30;99.90;;;;;;4994190;28;20123;-81
2021/07/07 00:59:23;;;;;;;22.40;2.95;;;15.40;99.90;;;;;;4995337;28;20023;-81
2021/07/07 01:01:49;;;;;;;13.10;2.55;;;15.40;99.90;;;;;;4993722;28;20026;-80
2021/07/07 01:04:14;;;;;;;16.23;2.58;;;15.40;99.90;;;;;;4994256;28;20037;-81
2021/07/07 01:06:40;;;;;;;24.48;2.72;;;15.30;99.90;;;;;;4994001;28;20026;-82
2021/07/07 01:09:06;;;;;;;8.52;2.50;;;15.30;99.90;;;;;;4995146;28;20467;-82
2021/07/07 01:11:33;;;;;;;19.70;3.10;;;15.20;99.90;;;;;;4993477;28;20113;-81
2021/07/07 01:13:59;;;;;;;13.82;3.40;;;15.20;99.90;;;;;;5000956;28;20026;-83
2021/07/07 01:16:26;;;;;;;21.90;3.28;;;15.10;99.90;;;;;;5014634;28;20021;-81
2021/07/07 01:18:51;;;;;;;13.98;3.10;;;15.10;99.90;;;;;;5014558;28;20105;-83
2021/07/07 01:21:19;;;;;;;12.63;2.58;;;15.00;99.90;;;;;;5014274;28;20590;-81
2021/07/07 01:23:44;;;;;;;23.23;4.93;;;15.00;99.90;;;;;;5012782;28;20014;-81
2021/07/07 01:26:10;;;;;;;15.55;3.40;;;14.90;99.90;;;;;;4994937;28;20030;-81
2021/07/07 01:28:36;;;;;;;19.65;3.63;;;14.70;99.90;;;;;;4994144;28;20031;-82
2021/07/07 01:31:03;;;;;;;18.58;2.70;;;14.70;99.90;;;;;;5010088;28;20022;-81
2021/07/07 01:33:29;;;;;;;14.55;3.65;;;14.60;99.90;;;;;;4994563;28;20065;-80
2021/07/07 01:35:55;;;;;;;16.02;2.95;;;14.60;99.90;;;;;;5010729;28;20069;-81
2021/07/07 01:38:20;;;;;;;17.73;3.42;;;14.60;99.90;;;;;;5014264;28;20022;-81
2021/07/07 01:40:46;;;;;;;21.83;4.22;;;14.60;99.90;;;;;;5029496;28;20037;-82
2021/07/07 01:43:12;;;;;;;22.95;4.43;;;14.70;99.90;;;;;;5013778;28;20030;-81
2021/07/07 01:45:37;;;;;;;22.50;3.72;;;14.70;99.90;;;;;;5002871;28;20034;-82
2021/07/07 01:48:03;;;;;;;17.77;4.07;;;14.80;99.90;;;;;;4999498;28;20109;-82
2021/07/07 01:50:29;;;;;;;21.50;3.53;;;14.70;99.90;;;;;;5012666;28;20081;-81
2021/07/07 01:52:56;;;;;;;14.95;3.65;;;14.70;99.90;;;;;;5013809;28;20018;-81
2021/07/07 01:55:22;;;;;;;22.67;5.57;;;14.60;99.90;;;;;;5007546;28;20038;-80
2021/07/07 01:57:49;;;;;;;13.73;3.58;;;14.60;99.90;;;;;;5009339;28;20026;-81
2021/07/07 02:00:29;;;;;;;18.33;3.85;;;14.60;99.90;;;;;;4994229;28;20027;-80
2021/07/07 02:02:56;;;;;;;15.13;4.50;;;14.60;99.90;;;;;;4994091;28;20037;-81
2021/07/07 02:05:25;;;;;;;16.35;4.30;;;14.50;99.90;;;;;;4994231;28;20030;-81
2021/07/07 02:07:51;;;;;;;24.05;3.88;;;14.40;99.90;;;;;;4994130;28;20030;-82
2021/07/07 02:10:18;;;;;;;22.55;3.67;;;14.40;99.90;;;;;;4992648;28;20026;-82
2021/07/07 02:12:43;;;;;;;15.52;4.28;;;14.40;99.90;;;;;;4993849;28;20022;-81
2021/07/07 02:15:16;;;;;;;22.80;5.95;;;14.40;99.90;;;;;;4993934;28;20171;-81
2021/07/07 02:17:43;;;;;;;24.27;3.73;;;14.40;99.90;;;;;;5013490;28;20036;-81
2021/07/07 02:20:11;;;;;;;18.92;4.50;;;14.40;99.90;;;;;;5013462;28;20265;-82
2021/07/07 02:22:37;;;;;;;13.77;3.70;;;14.40;99.90;;;;;;5012600;28;20034;-81
2021/07/07 02:25:12;;;;;;;18.85;3.85;;;14.40;99.90;;;;;;5013338;28;20034;-81
2021/07/07 02:27:38;;;;;;;18.92;3.08;;;14.30;99.90;;;;;;5019617;28;20052;-81
2021/07/07 02:30:09;;;;;;;16.88;4.50;;;14.30;99.90;;;;;;5017364;28;20479;-81
2021/07/07 02:32:36;;;;;;;25.17;4.60;;;14.20;99.90;;;;;;4993417;28;20034;-81
2021/07/07 02:35:04;;;;;;;17.95;3.83;;;14.20;99.90;;;;;;4992253;28;20029;-81
2021/07/07 02:37:30;;;;;;;18.00;3.72;;;14.10;99.90;;;;;;5000851;28;20116;-81
2021/07/07 02:39:56;;;;;;;17.85;4.13;;;14.10;99.90;;;;;;5024579;28;20070;-82
2021/07/07 02:42:21;;;;;;;18.88;4.32;;;14.10;99.90;;;;;;4993297;28;20022;-81
2021/07/07 02:44:47;;;;;;;24.42;4.60;;;14.00;99.90;;;;;;4993384;28;20451;-81
2021/07/07 02:47:12;;;;;;;29.73;4.45;;;13.90;99.90;;;;;;4999100;28;20034;-81
2021/07/07 02:49:38;;;;;;;22.33;5.00;;;13.80;99.90;;;;;;5027985;28;20032;-81
2021/07/07 02:52:04;;;;;;;24.65;5.15;;;13.80;99.90;;;;;;5012693;28;20080;-82
2021/07/07 02:54:30;;;;;;;27.77;4.90;;;13.80;99.90;;;;;;5012748;28;20227;-81
2021/07/07 02:56:55;;;;;;;17.58;4.88;;;13.70;99.90;;;;;;5007202;28;20518;-81
2021/07/07 02:59:21;;;;;;;31.52;4.80;;;13.60;99.90;;;;;;4993170;28;20045;-81
2021/07/07 03:01:46;;;;;;;13.60;3.90;;;13.60;99.90;;;;;;4992950;28;20030;-81
2021/07/07 03:04:12;;;;;;;20.80;4.00;;;13.50;99.90;;;;;;4993159;28;20033;-81
2021/07/07 03:06:38;;;;;;;18.55;5.10;;;13.50;99.90;;;;;;5007994;28;20110;-81
2021/07/07 03:09:03;;;;;;;17.33;5.60;;;13.40;99.90;;;;;;5012609;28;20032;-82
2021/07/07 03:11:29;;;;;;;21.60;6.30;;;13.30;99.90;;;;;;5012021;28;20084;-81
2021/07/07 03:13:56;;;;;;;26.40;7.28;;;13.20;99.90;;;;;;5027665;28;20026;-82
2021/07/07 03:16:22;;;;;;;22.98;4.38;;;13.20;99.90;;;;;;5012464;28;20026;-81
2021/07/07 03:18:47;;;;;;;22.67;5.10;;;13.10;99.90;;;;;;4997334;28;20033;-81
2021/07/07 03:21:13;;;;;;;19.17;5.47;;;13.10;99.90;;;;;;5011293;28;20041;-81
2021/07/07 03:23:38;;;;;;;19.20;4.53;;;13.00;99.90;;;;;;4998002;28;20034;-82
2021/07/07 03:26:04;;;;;;;15.48;4.60;;;12.90;99.90;;;;;;4992824;28;20022;-82
2021/07/07 03:28:30;;;;;;;18.17;5.32;;;12.90;99.90;;;;;;4995672;28;20034;-82
2021/07/07 03:30:55;;;;;;;27.75;5.45;;;12.80;99.90;;;;;;4992520;28;20049;-81
2021/07/07 03:33:21;;;;;;;32.28;5.47;;;12.80;99.90;;;;;;5007090;28;20056;-82
2021/07/07 03:35:47;;;;;;;21.95;5.95;;;12.80;99.90;;;;;;4992493;28;20026;-81
2021/07/07 03:38:13;;;;;;;25.83;5.15;;;12.90;99.90;;;;;;4996904;28;20157;-82
2021/07/07 03:40:39;;;;;;;17.60;4.72;;;12.90;99.90;;;;;;5012190;28;20029;-82
2021/07/07 03:43:06;;;;;;;22.00;5.10;;;12.90;99.90;;;;;;5011899;28;20065;-82
2021/07/07 03:45:31;;;;;;;21.65;6.13;;;13.00;99.90;;;;;;5027077;28;20030;-82
2021/07/07 03:47:57;;;;;;;36.42;6.38;;;12.90;99.90;;;;;;5012166;28;20030;-81
2021/07/07 03:50:23;;;;;;;24.50;5.97;;;13.00;99.90;;;;;;4992592;28;20038;-81
2021/07/07 03:52:49;;;;;;;17.33;4.82;;;13.10;99.90;;;;;;4992288;28;20105;-81
2021/07/07 03:55:18;;;;;;;23.42;5.70;;;13.00;99.90;;;;;;4992408;28;20085;-81
2021/07/07 03:57:45;;;;;;;19.55;5.28;;;13.00;99.90;;;;;;5007513;28;20030;-81
2021/07/07 04:00:18;;;;;;;15.02;5.32;;;13.00;99.90;;;;;;5021931;28;20493;-81
2021/07/07 04:02:44;;;;;;;15.52;5.07;;;13.00;99.90;;;;;;5011822;28;20084;-80
2021/07/07 04:05:11;;;;;;;23.67;6.00;;;13.10;99.90;;;;;;5011930;28;20030;-82
2021/07/07 04:07:37;;;;;;;20.23;6.45;;;13.10;99.90;;;;;;5011906;28;20105;-81
2021/07/07 04:10:08;;;;;;;31.13;6.60;;;13.20;99.90;;;;;;5000768;28;20081;-82
2021/07/07 04:12:38;;;;;;;14.27;4.78;;;13.20;99.90;;;;;;4991853;28;20078;-81
2021/07/07 04:15:06;;;;;;;23.83;5.82;;;13.20;99.90;;;;;;4992298;28;20046;-82
2021/07/07 04:17:32;;;;;;;12.25;4.50;;;13.30;99.90;;;;;;4992212;28;20061;-82
2021/07/07 04:19:58;;;;;;;24.80;4.90;;;13.30;99.90;;;;;;5007862;28;20398;-82
2021/07/07 04:22:24;;;;;;;18.95;4.90;;;13.30;99.90;;;;;;4991901;28;20046;-83
2021/07/07 04:24:49;;;;;;;17.48;5.00;;;13.30;99.90;;;;;;4990916;28;20030;-82
2021/07/07 04:27:15;;;;;;;23.48;5.38;;;13.40;99.90;;;;;;4992095;28;20091;-82
2021/07/07 04:29:40;;;;;;;21.83;4.78;;;13.40;99.90;;;;;;4993946;28;20509;-83
2021/07/07 04:32:06;;;;;;;14.25;4.40;;;13.50;99.90;;;;;;5026687;28;20018;-82
2021/07/07 04:34:32;;;;;;;16.48;5.22;;;13.50;99.90;;;;;;5011656;28;20026;-82
2021/07/07 04:36:57;;;;;;;17.33;4.45;;;13.60;99.90;;;;;;5026902;28;20018;-83
2021/07/07 04:39:23;;;;;;;25.98;5.10;;;13.60;99.90;;;;;;5011660;28;20111;-83
2021/07/07 04:41:49;;;;;;;14.90;3.90;;;13.60;99.90;;;;;;5009478;28;20034;-82
2021/07/07 04:44:14;;;;;;;13.68;4.90;;;13.70;99.90;;;;;;5007019;28;20041;-83
2021/07/07 04:46:40;;;;;;;11.50;4.43;;;13.80;99.90;;;;;;5010281;28;20590;-82
2021/07/07 04:49:05;;;;;;;13.20;4.78;;;13.80;99.90;;;;;;4995580;28;20035;-82
2021/07/07 04:51:31;;;;;;;12.38;5.18;;;13.90;99.90;;;;;;5006508;28;20097;-83
2021/07/07 04:53:57;;;;;;;12.45;4.93;;;13.90;99.90;;;;;;5015069;28;20026;-83
2021/07/07 04:56:23;;;;;;;19.40;4.78;;;14.00;99.90;;;;;;5014903;28;20545;-82
2021/07/07 04:58:49;;;;;;;12.80;4.15;;;14.00;99.90;;;;;;5015096;28;20109;-83
2021/07/07 05:01:14;;;;;;;10.98;4.07;;;14.10;99.90;;;;;;5008248;28;20038;-84
2021/07/07 05:03:40;;;;;;;17.48;4.25;;;14.20;99.90;;;;;;5010326;28;20065;-83
2021/07/07 05:06:05;;;;;;;16.55;3.65;;;14.20;99.90;;;;;;4995343;28;20483;-83
2021/07/07 05:08:31;;;;;;;12.23;3.83;;;14.30;99.90;;;;;;4995266;28;20105;-82
2021/07/07 05:10:57;;;;;;;15.20;3.40;;;14.50;99.90;;;;;;4995596;28;20062;-81
2021/07/07 05:13:23;;;;;;;20.85;3.83;;;14.60;99.90;;;;;;5014572;28;20025;-82
2021/07/07 05:15:51;;;;;;;10.90;3.65;;;14.80;99.90;;;;;;5014735;28;20436;-85
2021/07/07 05:18:17;;;;;;;12.05;3.20;;;14.90;99.90;;;;;;5014771;28;20018;-81
2021/07/07 05:20:43;;;;;;;15.98;3.33;;;14.90;99.90;;;;;;5013432;28;20029;-81
2021/07/07 05:23:09;;;;;;;13.68;3.88;;;14.90;99.90;;;;;;4998905;28;20034;-83
2021/07/07 05:25:36;;;;;;;14.50;3.58;;;14.90;99.90;;;;;;5014399;28;20034;-82
2021/07/07 05:28:03;;;;;;;17.92;3.70;;;14.90;99.90;;;;;;5014497;28;20029;-83
2021/07/07 05:30:29;;;;;;;15.63;3.50;;;14.90;99.90;;;;;;5029623;28;20401;-83
2021/07/07 05:32:54;;;;;;;12.10;3.40;;;14.90;99.90;;;;;;5003267;28;20023;-82
2021/07/07 05:35:20;;;;;;;7.80;3.55;;;14.90;99.90;;;;;;5009788;28;20026;-82
2021/07/07 05:37:47;;;;;;;10.85;3.10;;;15.00;99.90;;;;;;4994739;28;20069;-82
2021/07/07 05:40:16;;;;;;;9.90;3.15;;;15.20;99.90;;;;;;4994621;28;20122;-82
2021/07/07 05:42:44;;;;;;;7.25;3.20;;;15.40;99.90;;;;;;4995061;28;20040;-82
2021/07/07 05:45:09;;;;;;;11.82;3.20;;;15.50;99.90;;;;;;5009628;28;20027;-81
2021/07/07 05:47:35;;;;;;;16.90;4.30;;;15.70;99.90;;;;;;4993320;28;20440;-82
2021/07/07 05:50:00;;;;;;;14.73;3.83;;;15.80;99.90;;;;;;4993191;28;20034;-84
2021/07/07 05:52:27;;;;;;;12.18;3.83;;;16.00;99.90;;;;;;4995095;28;20076;-82
2021/07/07 05:54:55;;;;;;;17.83;3.22;;;16.10;99.90;;;;;;5013857;28;20110;-82
2021/07/07 05:57:24;;;;;;;6.78;2.92;;;16.10;99.90;;;;;;5011915;28;20030;-83
2021/07/07 05:59:50;;;;;;;10.88;3.35;;;16.10;99.90;;;;;;5013842;28;20394;-84
2021/07/07 06:02:16;;;;;;;9.77;3.38;;;16.10;99.90;;;;;;5011642;28;20030;-83
2021/07/07 06:04:42;;;;;;;14.18;3.38;;;16.20;99.90;;;;;;4996676;28;20038;-85
2021/07/07 06:07:08;;;;;;;17.70;3.25;;;16.30;99.90;;;;;;5002898;28;20069;-83
2021/07/07 06:09:34;;;;;;;13.23;3.42;;;16.30;99.90;;;;;;5011067;28;20061;-82
2021/07/07 06:11:59;;;;;;;11.15;3.10;;;16.50;99.90;;;;;;5030448;28;20386;-81
2021/07/07 06:14:25;;;;;;;15.40;3.58;;;16.60;99.90;;;;;;5019103;28;20390;-81
2021/07/07 06:16:51;;;;;;;13.48;2.78;;;16.70;99.90;;;;;;5013451;28;20163;-83
2021/07/07 06:19:17;;;;;;;11.68;3.95;;;16.90;99.90;;;;;;5013424;28;20440;-81
2021/07/07 06:21:42;;;;;;;16.20;3.70;;;16.90;99.90;;;;;;5012876;28;20502;-78
2021/07/07 06:24:08;;;;;;;16.48;3.28;;;17.10;99.90;;;;;;5006526;28;20046;-80
2021/07/07 06:26:34;;;;;;;12.25;3.75;;;17.10;99.90;;;;;;4993693;28;20108;-80
2021/07/07 06:29:04;;;;;;;14.25;3.38;;;17.20;99.90;;;;;;4993662;28;20026;-80
2021/07/07 06:31:31;;;;;;;6.47;3.17;;;17.30;99.90;;;;;;5008503;28;20483;-80
2021/07/07 06:33:57;;;;;;;15.93;3.00;;;17.40;99.90;;;;;;5010369;28;20068;-81
2021/07/07 06:36:23;;;;;;;13.50;3.45;;;17.50;99.90;;;;;;5012933;28;20542;-80
2021/07/07 06:38:48;;;;;;;11.15;3.08;;;17.50;99.90;;;;;;5028371;28;20130;-80
2021/07/07 06:41:14;;;;;;;13.77;3.72;;;17.70;99.90;;;;;;5012867;28;20105;-80
2021/07/07 06:43:41;;;;;;;20.15;3.10;;;17.90;99.90;;;;;;5012859;28;20399;-80
2021/07/07 06:46:06;;;;;;;9.38;3.75;;;17.90;99.90;;;;;;4997238;28;20085;-80
2021/07/07 06:48:32;;;;;;;6.45;2.50;;;18.00;99.90;;;;;;5008341;28;20026;-82
2021/07/07 06:50:58;;;;;;;13.50;3.30;;;18.00;99.90;;;;;;5008182;28;20561;-80
2021/07/07 06:53:25;;;;;;;12.45;3.00;;;18.20;99.90;;;;;;4992922;28;20030;-82
2021/07/07 06:55:51;;;;;;;9.02;2.90;;;18.20;99.90;;;;;;4995460;28;20022;-81
2021/07/07 06:58:16;;;;;;;8.80;2.95;;;18.40;99.90;;;;;;5005092;28;20030;-82
2021/07/07 07:00:42;;;;;;;23.75;3.60;;;18.50;99.90;;;;;;5012614;28;20363;-83
2021/07/07 07:03:08;;;;;;;12.40;3.08;;;18.70;99.90;;;;;;5012555;28;20417;-84
2021/07/07 07:05:34;;;;;;;14.70;2.88;;;18.80;99.90;;;;;;5012294;28;20033;-82
2021/07/07 07:08:00;;;;;;;13.60;2.40;;;18.90;99.90;;;;;;5005078;28;20117;-82
2021/07/07 07:10:26;;;;;;;12.23;1.92;;;18.80;99.90;;;;;;4992816;28;20030;-82
2021/07/07 07:12:51;;;;;;;9.45;2.17;;;18.80;99.90;;;;;;4992792;28;20030;-83
2021/07/07 07:15:17;;;;;;;11.27;2.53;;;18.90;99.90;;;;;;4992757;28;20054;-81
2021/07/07 07:17:43;;;;;;;9.68;2.20;;;19.10;99.90;;;;;;4994679;28;20492;-83
2021/07/07 07:20:11;;;;;;;8.60;1.67;;;19.30;99.90;;;;;;5012219;28;20040;-83
2021/07/07 07:22:37;;;;;;;8.40;1.73;;;19.30;99.90;;;;;;5027397;28;20033;-81
2021/07/07 07:25:05;;;;;;;6.20;2.38;;;19.60;99.90;;;;;;5012254;28;20048;-83
2021/07/07 07:27:31;;;;;;;6.78;2.35;;;19.70;99.90;;;;;;5012283;28;20486;-81
2021/07/07 07:29:56;;;;;;;14.10;3.25;;;19.60;99.90;;;;;;4994523;28;20034;-80
2021/07/07 07:32:22;;;;;;;9.73;2.53;;;19.30;99.90;;;;;;4992534;28;20084;-82
2021/07/07 07:34:48;;;;;;;20.80;2.85;;;19.30;99.90;;;;;;4993586;28;20022;-81
2021/07/07 07:37:20;;;;;;;13.32;3.00;;;19.40;99.90;;;;;;5020652;28;20101;-81
2021/07/07 07:39:56;;;;;;;13.45;2.25;;;19.40;99.90;;;;;;5005144;28;20030;-81
2021/07/07 07:42:22;;;;;;;10.65;2.30;;;19.20;99.90;;;;;;4990947;28;20069;-83
2021/07/07 07:44:48;;;;;;;11.02;2.40;;;19.40;99.90;;;;;;4991879;28;20046;-82
2021/07/07 07:47:17;;;;;;;9.43;1.90;;;19.70;99.90;;;;;;5007278;28;20499;-81
2021/07/07 07:49:43;;;;;;;13.27;2.58;;;19.80;99.90;;;;;;5015471;28;20037;-81
2021/07/07 07:52:09;;;;;;;11.73;2.33;;;19.70;99.90;;;;;;5011797;28;20371;-81
2021/07/07 07:54:35;;;;;;;7.97;2.30;;;19.90;99.90;;;;;;5027019;28;20022;-82
2021/07/07 07:57:01;;;;;;;11.20;2.38;;;20.00;99.90;;;;;;5011971;28;20371;-81
2021/07/07 07:59:28;;;;;;;9.23;2.92;;;19.90;99.90;;;;;;5014932;28;20034;-81
2021/07/07 08:01:54;;;;;;;11.75;2.58;;;19.70;99.90;;;;;;5007687;28;20065;-80
2021/07/07 08:04:19;;;;;;;7.28;2.20;;;19.80;99.90;;;;;;5011854;28;20064;-80
2021/07/07 08:06:46;;;;;;;15.63;1.80;;;19.70;99.90;;;;;;5011782;28;20026;-81
2021/07/07 08:09:11;;;;;;;23.55;2.83;;;19.70;99.90;;;;;;5004743;28;20487;-80
2021/07/07 08:11:37;;;;;;;12.98;2.42;;;19.90;99.90;;;;;;4990628;28;20034;-81
2021/07/07 08:14:03;;;;;;;7.18;1.70;;;20.40;99.90;;;;;;4991114;28;20483;-81
2021/07/07 08:16:29;;;;;;;13.27;2.28;;;20.50;99.90;;;;;;4992144;28;20513;-81
2021/07/07 08:18:54;;;;;;;11.20;1.63;;;20.90;99.90;;;;;;4993503;28;20037;-81
2021/07/07 08:21:20;;;;;;;10.15;2.00;;;21.40;99.90;;;;;;5029308;28;20037;-81
2021/07/07 08:23:47;;;;;;;15.23;2.53;;;21.10;99.90;;;;;;5030770;28;20125;-80
2021/07/07 08:26:12;;;;;;;11.45;2.47;;;21.10;99.90;;;;;;5015579;28;20030;-81
2021/07/07 08:28:38;;;;;;;12.65;2.47;;;21.20;99.90;;;;;;5015579;28;20529;-80
2021/07/07 08:31:04;;;;;;;7.97;1.85;;;21.20;99.90;;;;;;5014543;28;20499;-81
2021/07/07 08:33:29;;;;;;;6.60;2.50;;;21.10;99.90;;;;;;5003549;28;20465;-82
2021/07/07 08:35:55;;;;;;;14.88;1.52;;;20.90;99.90;;;;;;5010741;28;20050;-81
2021/07/07 08:38:21;;;;;;;8.60;1.48;;;21.00;99.90;;;;;;4994595;28;20486;-81
2021/07/07 08:40:46;;;;;;;8.50;1.50;;;21.00;99.90;;;;;;5006605;28;20029;-81
2021/07/07 08:43:12;;;;;;;10.23;1.50;;;21.40;99.90;;;;;;5030249;28;20034;-80
2021/07/07 08:45:38;;;;;;;10.60;1.90;;;21.70;99.90;;;;;;5015259;28;20566;-81
2021/07/07 08:48:04;;;;;;;8.02;1.73;;;21.70;99.90;;;;;;5030347;28;20538;-80
2021/07/07 08:50:32;;;;;;;11.48;2.70;;;21.90;99.90;;;;;;5023893;28;20061;-80
2021/07/07 08:53:03;;;;;;;5.80;1.95;;;22.20;99.90;;;;;;5010432;28;20022;-80
2021/07/07 08:55:29;;;;;;;6.38;1.50;;;22.70;99.90;;;;;;4995375;28;20157;-81
2021/07/07 08:57:57;;;;;;;7.10;1.70;;;22.90;99.90;;;;;;4995365;28;20029;-82
2021/07/07 09:00:33;;;;;;;13.18;1.65;;;22.80;99.90;;;;;;4997375;28;20393;-80
2021/07/07 09:03:08;;;;;;;6.07;1.38;;;22.70;99.90;;;;;;5014719;28;20386;-80
2021/07/07 09:05:48;;;;;;;6.80;1.30;;;22.70;99.90;;;;;;5014861;28;20033;-80
2021/07/07 09:08:13;;;;;;;5.50;1.23;;;23.00;99.90;;;;;;5014908;28;20026;-83
2021/07/07 09:10:39;;;;;;;5.75;1.23;;;22.90;99.90;;;;;;5012508;28;20034;-82
2021/07/07 09:13:12;;;;;;;2.92;1.13;;;22.60;99.90;;;;;;4993767;28;20505;-81
2021/07/07 09:15:38;;;;;;;;;;;22.40;99.90;;;;;;4995659;28;20081;-83
2021/07/07 09:18:04;;;;;;;7.40;1.38;;;22.00;99.90;;;;;;4993813;28;19909;-82
2021/07/07 09:20:40;;;;;;;6.40;1.15;;;21.80;99.90;;;;;;5010157;28;20030;-81
2021/07/07 09:23:24;;;;;;;12.55;1.55;;;22.00;99.90;;;;;;5013005;28;20039;-81
2021/07/07 09:25:57;;;;;;;5.43;1.50;;;22.50;99.90;;;;;;5014649;28;20029;-81
2021/07/07 09:28:23;;;;;;;6.03;1.10;;;23.10;99.90;;;;;;5029811;28;20095;-81
2021/07/07 09:30:49;;;;;;;5.72;1.08;;;23.40;99.90;;;;;;5029537;28;20033;-80
2021/07/07 09:33:16;;;;;;;12.88;1.30;;;24.00;99.90;;;;;;4994422;28;20026;-83
2021/07/07 09:35:42;;;;;;;4.53;1.02;;;24.00;99.90;;;;;;5009621;28;20023;-81
2021/07/07 09:38:08;;;;;;;5.60;1.00;;;24.00;99.90;;;;;;5009803;28;20030;-82
2021/07/07 09:40:40;;;;;;;7.45;1.40;;;23.80;99.90;;;;;;4994702;28;20062;-82
2021/07/07 09:43:05;;;;;;;1.58;0.77;;;23.90;99.90;;;;;;5007067;28;20502;-81
2021/07/07 09:45:31;;;;;;;7.95;0.80;;;24.30;99.90;;;;;;5014139;28;20038;-80
2021/07/07 09:47:59;;;;;;;4.70;1.20;;;24.20;99.90;;;;;;5014037;28;20029;-80
2021/07/07 09:50:25;;;;;;;4.13;1.15;;;24.30;99.90;;;;;;5013992;28;20030;-81
2021/07/07 09:52:52;;;;;;;6.32;0.98;;;24.10;99.90;;;;;;5010406;28;20548;-83
2021/07/07 09:55:18;;;;;;;6.43;0.98;;;23.40;99.90;;;;;;5029220;28;20505;-81
2021/07/07 09:57:45;;;;;;;3.92;1.42;;;23.40;99.90;;;;;;5013991;28;20026;-81
2021/07/07 10:00:22;;;;;;;6.75;1.00;;;23.70;99.90;;;;;;5013901;28;20022;-80
2021/07/07 10:02:49;;;;;;;2.67;1.08;;;23.40;99.90;;;;;;4994090;28;20193;-82
2021/07/07 10:05:17;;;;;;;3.50;0.82;;;23.20;99.90;;;;;;4994190;28;20395;-79
2021/07/07 10:07:44;;;;;;;8.43;1.15;;;23.10;99.90;;;;;;4994197;28;20022;-80
2021/07/07 10:10:14;;;;;;;1.92;0.80;;;22.90;99.90;;;;;;4993915;28;20030;-80
2021/07/07 10:12:43;;;;;;;3.55;0.70;;;23.20;99.90;;;;;;4994977;28;20026;-82
2021/07/07 10:15:10;;;;;;;10.52;1.42;;;23.50;99.90;;;;;;4993912;28;20019;-81
2021/07/07 10:17:36;;;;;;;3.78;0.95;;;23.40;99.90;;;;;;4994094;28;20026;-80
2021/07/07 10:20:03;;;;;;;9.73;1.10;;;23.30;99.90;;;;;;5008917;28;20030;-83
2021/07/07 10:22:29;;;;;;;2.95;1.38;;;23.30;99.90;;;;;;4994507;28;20038;-81
2021/07/07 10:24:55;;;;;;;8.10;1.65;;;23.40;99.90;;;;;;4993834;28;20037;-80
2021/07/07 10:27:21;;;;;;;3.97;1.05;;;23.70;99.90;;;;;;5008908;28;20477;-82
2021/07/07 10:29:48;;;;;;;5.72;1.17;;;24.00;99.90;;;;;;5008607;28;20117;-81
2021/07/07 10:32:19;;;;;;;6.15;1.13;;;24.40;99.90;;;;;;4999959;28;20026;-80
2021/07/07 10:34:47;;;;;;;9.85;0.82;;;25.10;99.90;;;;;;5013196;28;20025;-82
2021/07/07 10:37:14;;;;;;;4.15;0.80;;;25.50;99.90;;;;;;5013209;28;20048;-81
2021/07/07 10:39:39;;;;;;;3.85;1.27;;;25.10;99.90;;;;;;5013105;28;20057;-80
2021/07/07 10:42:07;;;;;;;7.18;1.33;;;25.30;99.90;;;;;;5009734;28;20070;-80
2021/07/07 10:44:38;;;;;;;2.95;1.13;;;24.50;99.90;;;;;;4993225;28;20019;-82
2021/07/07 10:47:13;;;;;;;6.70;1.25;;;24.30;99.90;;;;;;5008521;28;20054;-82
2021/07/07 10:49:38;;;;;;;3.63;0.98;;;23.80;99.90;;;;;;5008519;28;20061;-81
2021/07/07 10:52:07;;;;;;;9.52;1.40;;;24.00;99.90;;;;;;5008187;28;20046;-82
2021/07/07 10:54:35;;;;;;;9.55;1.20;;;23.90;99.90;;;;;;4993426;28;20033;-81
2021/07/07 10:57:04;;;;;;;6.43;1.00;;;24.40;99.90;;;;;;5008288;28;20418;-81
2021/07/07 10:59:30;;;;;;;5.55;1.13;;;24.50;99.90;;;;;;4993402;28;20065;-82
2021/07/07 11:02:06;;;;;;;6.30;1.27;;;24.50;99.90;;;;;;4992994;28;20049;-80
2021/07/07 11:04:54;;;;;;;5.32;1.02;;;24.40;99.90;;;;;;5017051;28;20029;-83
2021/07/07 11:07:28;;;;;;;4.82;1.02;;;24.70;99.90;;;;;;5012475;28;20028;-81
2021/07/07 11:10:02;;;;;;;5.75;1.40;;;25.00;99.90;;;;;;5012577;28;20064;-82
2021/07/07 11:12:39;;;;;;;9.65;2.00;;;25.10;99.90;;;;;;5027622;28;20046;-81
2021/07/07 11:15:16;;;;;;;5.43;1.35;;;24.60;99.90;;;;;;5016848;28;20098;-82
2021/07/07 11:17:45;;;;;;;8.13;1.75;;;24.80;99.90;;;;;;4992669;28;20093;-81
2021/07/07 11:20:12;;;;;;;3.72;1.05;;;25.00;99.90;;;;;;4992809;28;20105;-82
2021/07/07 11:22:40;;;;;;;4.68;1.40;;;24.90;99.90;;;;;;5007658;28;20495;-80
2021/07/07 11:25:09;;;;;;;9.70;1.65;;;24.80;99.90;;;;;;4997218;28;20034;-82
2021/07/07 11:27:35;;;;;;;10.55;1.42;;;24.90;99.90;;;;;;4992728;28;20022;-81
2021/07/07 11:30:08;;;;;;;5.70;1.00;;;24.50;99.90;;;;;;5007585;28;20490;-81
2021/07/07 11:32:37;;;;;;;6.60;1.65;;;24.60;99.90;;;;;;5007829;28;20026;-83
2021/07/07 11:35:28;;;;;;;5.93;1.52;;;25.40;99.90;;;;;;4992564;28;20510;-83
2021/07/07 11:37:55;;;;;;;6.97;1.38;;;25.80;99.90;;;;;;5006074;28;20108;-82
2021/07/07 11:40:23;;;;;;;7.00;1.50;;;26.20;99.90;;;;;;5033130;28;20080;-82
2021/07/07 11:42:58;;;;;;;4.38;1.60;;;26.00;99.90;;;;;;5017825;28;20497;-81
2021/07/07 11:45:30;;;;;;;10.98;0.98;;;26.30;99.90;;;;;;4992463;28;20076;-82
2021/07/07 11:48:08;;;;;;;7.28;1.30;;;26.20;99.90;;;;;;5023764;28;20060;-81
2021/07/07 11:50:35;;;;;;;8.02;1.48;;;26.80;99.90;;;;;;4992364;28;20533;-81
2021/07/07 11:53:06;;;;;;;7.82;1.20;;;26.80;99.90;;;;;;4992154;28;20026;-81
2021/07/07 11:55:54;;;;;;;7.38;1.52;;;26.50;99.90;;;;;;4990465;28;20029;-81
2021/07/07 11:58:28;;;;;;;4.43;1.25;;;26.70;99.90;;;;;;4989500;28;20046;-81
2021/07/07 12:00:59;;;;;;;5.95;1.83;;;26.60;99.90;;;;;;4995378;28;20027;-83
2021/07/07 12:03:25;;;;;;;12.05;3.20;;;26.60;99.90;;;;;;5000692;28;20502;-81
2021/07/07 12:05:57;;;;;;;5.88;1.58;;;26.80;99.90;;;;;;5011789;28;20509;-85
2021/07/07 12:08:31;;;;;;;3.40;1.40;;;26.60;99.90;;;;;;5005232;28;20031;-83
2021/07/07 12:11:08;;;;;;;6.53;1.80;;;26.60;99.90;;;;;;5012031;28;20549;-82
2021/07/07 12:13:36;;;;;;;9.20;1.60;;;27.00;99.90;;;;;;5010482;28;20030;-80
2021/07/07 12:16:33;;;;;;;4.63;1.75;;;27.10;99.90;;;;;;5011664;28;20025;-82
2021/07/07 12:19:04;;;;;;;7.47;1.88;;;27.40;99.90;;;;;;5027003;28;20054;-81
2021/07/07 12:21:35;;;;;;;5.60;1.30;;;27.40;99.90;;;;;;5011525;28;20026;-81
2021/07/07 12:24:05;;;;;;;7.88;1.55;;;27.00;99.90;;;;;;4997096;28;20402;-83
2021/07/07 12:26:33;;;;;;;5.05;1.67;;;26.90;99.90;;;;;;4992136;28;20037;-82
2021/07/07 12:29:00;;;;;;;8.85;1.58;;;26.90;99.90;;;;;;4992162;28;20023;-82
2021/07/07 12:31:29;;;;;;;5.93;1.70;;;26.80;99.90;;;;;;4991826;28;20022;-80
2021/07/07 12:33:56;;;;;;;6.65;2.05;;;27.10;99.90;;;;;;5017214;28;20164;-82
2021/07/07 12:36:31;;;;;;;9.48;1.77;;;27.10;99.90;;;;;;5011695;28;20040;-82
2021/07/07 12:38:59;;;;;;;10.38;2.15;;;26.90;99.90;;;;;;5011564;28;20042;-82
2021/07/07 12:41:37;;;;;;;13.27;1.90;;;27.00;99.90;;;;;;5011455;28;20421;-82